Billy Bishop Toronto City Centre Airport

CYTZ · Ontario, Canada

7 octobre 2022

Temps Code Temps Temp. Vue Base cloud Vent METAR/SPECI
14:00
V
10 °C 9 mi 3.700 ft 360° 360° 8 - 21 kt METAR CYTZ 071800Z AUTO 36008G21KT 280V020 9SM BKN037 10/02 A3012 RMK SLP201
13:00
V
10 °C 9 mi 3.700 ft 320° 320° 16 - 25 kt METAR CYTZ 071700Z AUTO 32016G25KT 9SM OVC037 10/03 A3011 RMK SLP199
12:00
V
9 °C 9 mi 3.400 ft 310° 310° 15 - 23 kt METAR CYTZ 071600Z AUTO 31015G23KT 9SM BKN034 OVC040 09/03 A3011 RMK SLP198
11:00
V
9 °C 9 mi 4.300 ft 330° 330° 15 - 24 kt METAR CYTZ 071500Z AUTO 33015G24KT 9SM SCT033 BKN043 09/03 A3009 RMK SLP193
10:12
V
10 °C 9 mi 3.200 ft 300° 300° 24 - 30 kt METAR CYTZ 071412Z AUTO 30024G30KT 9SM BKN032 10/04 A3008 RMK SLP191
10:00
V
9 °C 9 mi 3.200 ft 320° 320° 13 - 20 kt METAR CYTZ 071400Z AUTO 32013G20KT 9SM BKN032 09/03 A3008 RMK SLP188
09:00
V
10 °C 9 mi - 320° 320° 17 - 30 kt METAR CYTZ 071300Z AUTO 32017G30KT 9SM FEW029 10/04 A3006 RMK SLP183
08:51
V
10 °C 9 mi - 310° 310° 23 - 28 kt METAR CYTZ 071251Z AUTO 31023G28KT 9SM CLR 10/04 A3006 RMK SLP181
08:00
V
10 °C 9 mi - 330° 330° 13 - 21 kt METAR CYTZ 071200Z AUTO 33013G21KT 9SM FEW044 10/05 A3003 RMK SLP174
07:00
V
10 °C 9 mi - 310° 310° 18 - 24 kt METAR CYTZ 071100Z AUTO 31018G24KT 9SM CLR 10/06 A3001 RMK SLP165
06:00
V
11 °C 9 mi 9.100 ft 310° 310° 20 - 29 kt METAR CYTZ 071000Z AUTO 31020G29KT 9SM FEW028 OVC091 11/06 A2998 RMK PRESRR SLP155
05:52
V
11 °C 9 mi 8.600 ft 320° 320° 20 - 29 kt METAR CYTZ 070952Z AUTO 32020G29KT 9SM SCT026 OVC086 11/06 A2997 RMK SLP153
05:35
V
12 °C 9 mi 3.300 ft 300° 300° 19 kt METAR CYTZ 070935Z AUTO 30019KT 9SM -RA SCT024 BKN033 BKN081 OVC100 12/07 A2997 RMK SLP153
05:00
V
13 °C 9 mi 7.600 ft 320° 320° 17 - 25 kt METAR CYTZ 070900Z AUTO 32017G25KT 9SM SCT028 BKN076 OVC100 13/08 A2994 RMK SLP142
04:28
V
13 °C 9 mi 3.900 ft 320° 320° 14 - 24 kt METAR CYTZ 070828Z AUTO 32014G24KT 9SM FEW022 SCT028 BKN039 OVC081 13/09 A2994 RMK SLP140
04:03
M
13 °C 9 mi 2.200 ft 320° 320° 13 - 19 kt METAR CYTZ 070803Z AUTO 32013G19KT 9SM -RA BKN022 BKN033 BKN055 OVC066 13/10 A2994 RMK SLP140
04:00
M
13 °C 9 mi 2.600 ft 310° 310° 15 - 20 kt METAR CYTZ 070800Z AUTO 31015G20KT 9SM -RA SCT020 BKN026 BKN036 OVC060 13/10 A2994 RMK PRESRR SLP141
03:56
M
13 °C 9 mi 2.600 ft 320° 320° 13 - 20 kt METAR CYTZ 070756Z AUTO 32013G20KT 9SM BKN026 BKN036 BKN055 OVC066 13/10 A2994 RMK PRESRR SLP140
03:12
M
13 °C 9 mi 2.100 ft 330° 330° 10 - 16 kt METAR CYTZ 070712Z AUTO 33010G16KT 9SM OVC021 13/11 A2992 RMK SLP135
03:00
M
14 °C 9 mi 2.100 ft 330° 330° 11 - 22 kt METAR CYTZ 070700Z AUTO 33011G22KT 9SM -RA BKN021 OVC060 14/11 A2992 RMK SLP134
02:53
M
14 °C 9 mi 2.300 ft 310° 310° 13 - 23 kt METAR CYTZ 070653Z AUTO 31013G23KT 9SM -RA BKN023 OVC066 14/11 A2992 RMK SLP134
02:41
V
14 °C 9 mi 6.000 ft 310° 310° 12 - 20 kt METAR CYTZ 070641Z AUTO 31012G20KT 9SM -RA SCT023 SCT033 BKN060 OVC075 14/10 A2992 RMK SLP133 DENSITY ALT 300FT
02:30
V
14 °C 9 mi 7.100 ft 320° 320° 13 - 24 kt METAR CYTZ 070630Z AUTO 32013G24KT 9SM FEW034 OVC071 14/10 A2991 RMK SLP131 DENSITY ALT 300FT
02:14
V
15 °C 9 mi 7.100 ft 310° 310° 16 - 22 kt METAR CYTZ 070614Z AUTO 31016G22KT 9SM -RA OVC071 15/10 A2990 RMK SLP129 DENSITY ALT 400FT
02:07
V
15 °C 9 mi 7.100 ft 310° 310° 17 - 23 kt METAR CYTZ 070607Z AUTO 31017G23KT 9SM BKN071 OVC080 15/10 A2990 RMK SLP128 DENSITY ALT 400FT
01:54
V
15 °C 9 mi 7.100 ft 310° 310° 16 - 25 kt METAR CYTZ 070554Z AUTO 31016G25KT 9SM -RA BKN071 OVC090 15/10 A2990 RMK SLP127 DENSITY ALT 400FT
01:00
V
17 °C 9 mi 10.000 ft 290° 290° 13 kt METAR CYTZ 070500Z AUTO 29013KT 9SM SCT031 OVC100 17/12 A2988 RMK SLP122 DENSITY ALT 600FT
00:00
V
16 °C 9 mi 9.600 ft 250° 250° 6 kt METAR CYTZ 070400Z AUTO 25006KT 9SM OVC096 16/12 A2988 RMK SLP120 DENSITY ALT 500FT

6 octobre 2022

Temps Code Temps Temp. Vue Base cloud Vent METAR/SPECI
23:00
V
16 °C 9 mi 10.000 ft 250° 250° 8 - 16 kt METAR CYTZ 070300Z AUTO 25008G16KT 9SM BKN100 OVC120 16/12 A2988 RMK SLP122 DENSITY ALT 500FT
22:00
V
16 °C 9 mi 13.000 ft 250° 250° 7 kt METAR CYTZ 070200Z AUTO 25007KT 9SM OVC130 16/13 A2988 RMK SLP122 DENSITY ALT 500FT
21:00
V
16 °C 9 mi 16.000 ft 220° 220° 10 kt METAR CYTZ 070100Z AUTO 22010KT 9SM FEW140 BKN160 16/13 A2989 RMK SLP123 DENSITY ALT 500FT
20:00
V
17 °C 9 mi 14.000 ft 200° 200° 10 kt METAR CYTZ 070000Z AUTO 20010KT 9SM SCT120 OVC140 17/13 A2989 RMK SLP123 DENSITY ALT 600FT
19:00
V
17 °C 9 mi 16.000 ft 180° 180° 9 kt METAR CYTZ 062300Z AUTO 18009KT 9SM FEW110 BKN160 17/13 A2988 RMK SLP121 DENSITY ALT 600FT
18:00
V
18 °C 9 mi 10.000 ft 210° 210° 8 kt METAR CYTZ 062200Z AUTO 21008KT 9SM BKN100 BKN120 BKN190 18/11 A2988 RMK SLP122 DENSITY ALT 800FT
17:00
V
19 °C 9 mi - 200° 200° 9 kt METAR CYTZ 062100Z AUTO 20009KT 9SM FEW110 19/12 A2988 RMK SLP122 DENSITY ALT 800FT
16:00
V
19 °C 9 mi - 180° 180° 9 kt METAR CYTZ 062000Z AUTO 18009KT 9SM CLR 19/13 A2989 RMK SLP124 DENSITY ALT 800FT
15:00
V
18 °C 9 mi - 260° 260° 5 kt METAR CYTZ 061900Z AUTO 26005KT 200V310 9SM CLR 18/14 A2990 RMK SLP128 DENSITY ALT 700FT
14:00
V
18 °C 9 mi - Var Var 2 kt METAR CYTZ 061800Z AUTO VRB02KT 9SM CLR 18/14 A2991 RMK SLP132 DENSITY ALT 700FT
13:00
V
17 °C 9 mi 10.000 ft 260° 260° 4 kt METAR CYTZ 061700Z AUTO 26004KT 160V320 9SM BKN100 BKN120 17/14 A2993 RMK SLP139 DENSITY ALT 600FT
12:00
V
17 °C 9 mi - 260° 260° 6 kt METAR CYTZ 061600Z AUTO 26006KT 190V300 9SM SCT120 17/14 A2995 RMK SLP143 DENSITY ALT 500FT
11:00
V
16 °C 9 mi - 210° 210° 5 kt METAR CYTZ 061500Z AUTO 21005KT 190V290 9SM SCT110 SCT150 16/13 A2995 RMK SLP146 DENSITY ALT 500FT
10:00
V
16 °C 9 mi - 200° 200° 4 kt METAR CYTZ 061400Z AUTO 20004KT 170V300 9SM FEW110 16/14 A2996 RMK SLP148 DENSITY ALT 400FT
09:26
V
15 °C 9 mi 11.000 ft Var Var 2 kt METAR CYTZ 061326Z AUTO VRB02KT 9SM BKN110 BKN140 15/13 A2996 RMK SLP148 DENSITY ALT 400FT
09:15
V
15 °C 9 mi 11.000 ft 300° 300° 5 kt METAR CYTZ 061315Z AUTO 30005KT 210V320 9SM -RA BKN110 BKN140 15/13 A2997 RMK SLP150 DENSITY ALT 300FT
09:04
V
15 °C 9 mi 11.000 ft 280° 280° 5 kt METAR CYTZ 061304Z AUTO 28005KT 200V330 9SM BKN110 15/13 A2997 RMK SLP150 DENSITY ALT 300FT
08:41
V
15 °C 9 mi 11.000 ft 310° 310° 6 kt METAR CYTZ 061241Z AUTO 31006KT 260V320 9SM -RA OVC110 15/13 A2996 RMK SLP148 DENSITY ALT 300FT
08:00
V
14 °C 9 mi 11.000 ft 280° 280° 5 kt METAR CYTZ 061200Z AUTO 28005KT 250V310 9SM BKN110 BKN130 14/12 A2996 RMK SLP149
07:30
V
14 °C 9 mi 13.000 ft 280° 280° 5 kt METAR CYTZ 061130Z AUTO 28005KT 190V320 9SM SCT110 BKN130 OVC150 14/13 A2996 RMK SLP148
07:12
V
14 °C 9 mi 11.000 ft 280° 280° 6 kt METAR CYTZ 061112Z AUTO 28006KT 200V300 9SM -RA OVC110 14/13 A2996 RMK SLP148
07:00
V
14 °C 9 mi 11.000 ft 280° 280° 5 kt METAR CYTZ 061100Z AUTO 28005KT 210V310 9SM OVC110 14/13 A2996 RMK SLP147
06:52
V
14 °C 9 mi 11.000 ft 280° 280° 5 kt METAR CYTZ 061052Z AUTO 28005KT 200V300 9SM BKN110 OVC130 14/12 A2996 RMK SLP148
06:18
V
14 °C 9 mi 11.000 ft 280° 280° 4 kt METAR CYTZ 061018Z AUTO 28004KT 250V310 9SM -RA BKN110 OVC140 14/13 A2996 RMK SLP148
06:00
V
14 °C 9 mi 12.000 ft 300° 300° 5 kt METAR CYTZ 061000Z AUTO 30005KT 9SM FEW096 BKN120 OVC140 14/12 A2996 RMK SLP148
05:50
V
14 °C 9 mi 12.000 ft 300° 300° 5 kt METAR CYTZ 060950Z AUTO 30005KT 250V310 9SM FEW100 BKN120 OVC140 14/12 A2996 RMK SLP148
05:37
V
14 °C 9 mi 12.000 ft 300° 300° 6 kt METAR CYTZ 060937Z AUTO 30006KT 260V320 9SM -RA FEW100 BKN120 OVC170 14/10 A2996 RMK SLP148
05:00
V
14 °C 9 mi 12.000 ft 310° 310° 7 kt METAR CYTZ 060900Z AUTO 31007KT 9SM BKN120 BKN150 OVC170 14/11 A2996 RMK SLP148
04:00
V
14 °C 9 mi 14.000 ft 300° 300° 5 kt METAR CYTZ 060800Z AUTO 30005KT 260V320 9SM SCT120 BKN140 OVC170 14/11 A2996 RMK SLP149
03:00
V
14 °C 9 mi 15.000 ft 310° 310° 6 kt METAR CYTZ 060700Z AUTO 31006KT 250V310 9SM FEW120 BKN150 BKN170 14/11 A2997 RMK SLP152
02:00
V
13 °C 9 mi 15.000 ft 260° 260° 6 kt METAR CYTZ 060600Z AUTO 26006KT 9SM OVC150 13/10 A2998 RMK SLP153
01:00
V
15 °C 9 mi - 300° 300° 7 kt METAR CYTZ 060500Z AUTO 30007KT 9SM FEW180 15/10 A2998 RMK SLP153
00:00
V
14 °C 9 mi - 280° 280° 3 kt METAR CYTZ 060400Z AUTO 28003KT 260V320 9SM CLR 14/12 A2998 RMK SLP155

5 octobre 2022

Temps Code Temps Temp. Vue Base cloud Vent METAR/SPECI
23:00
V
14 °C 9 mi - 210° 210° 3 kt METAR CYTZ 060300Z AUTO 21003KT 190V320 9SM CLR 14/12 A2999 RMK SLP158
22:00
V
15 °C 9 mi - 260° 260° 4 kt METAR CYTZ 060200Z AUTO 26004KT 220V320 9SM CLR 15/11 A2999 RMK SLP158
21:00
V
14 °C 9 mi - 100° 100° 3 kt METAR CYTZ 060100Z AUTO 10003KT 060V130 9SM CLR 14/10 A3000 RMK SLP160
20:00
V
14 °C 9 mi - 080° 080° 3 kt METAR CYTZ 060000Z AUTO 08003KT 9SM CLR 14/09 A3000 RMK SLP162
19:00
V
16 °C 9 mi - 250° 250° 4 kt METAR CYTZ 052300Z AUTO 25004KT 220V310 9SM CLR 16/10 A3000 RMK SLP161 DENSITY ALT 400FT
18:00
V
18 °C 9 mi - Var 000° 0 kt METAR CYTZ 052200Z AUTO 00000KT 9SM CLR 18/10 A2999 RMK SLP160 DENSITY ALT 700FT
17:00
V
20 °C 9 mi - Var Var 2 kt METAR CYTZ 052100Z AUTO VRB02KT 9SM CLR 20/05 A3000 RMK SLP161 DENSITY ALT 900FT
16:00
V
19 °C 9 mi - 170° 170° 4 kt METAR CYTZ 052000Z AUTO 17004KT 9SM CLR 19/09 A3001 RMK SLP164 DENSITY ALT 700FT
15:00
V
17 °C 9 mi - 180° 180° 5 kt METAR CYTZ 051900Z AUTO 18005KT 160V230 9SM CLR 17/12 A3003 RMK SLP170 DENSITY ALT 500FT
14:00
V
17 °C 9 mi - 200° 200° 7 kt METAR CYTZ 051800Z AUTO 20007KT 160V260 9SM CLR 17/12 A3004 RMK SLP176 DENSITY ALT 500FT
13:00
V
18 °C 9 mi - 180° 180° 7 kt METAR CYTZ 051700Z AUTO 18007KT 9SM CLR 18/11 A3006 RMK SLP180 DENSITY ALT 500FT
12:00
V
18 °C 9 mi - 180° 180° 6 kt METAR CYTZ 051600Z AUTO 18006KT 9SM CLR 18/10 A3006 RMK SLP184 DENSITY ALT 500FT
11:00
V
17 °C 9 mi - 230° 230° 5 kt METAR CYTZ 051500Z AUTO 23005KT 180V280 9SM CLR 17/11 A3008 RMK SLP188 DENSITY ALT 400FT
Données plus anciennes

Nous et des tiers suivons ton comportement sur Internet sur notre site Web à l'aide de cookies. Si tu continues, nous supposons que tu acceptes notre politique en matière de cookies. Apprendre plus